createdAt,value
2022-09-10T00:01:20.299Z,98081.03
2022-09-10T00:03:49.832Z,98093.06
2022-09-10T00:06:18.698Z,98084.81
2022-09-10T00:08:46.936Z,98121.63
2022-09-10T00:11:15.088Z,98107.84
2022-09-10T00:13:42.813Z,98116.91
2022-09-10T00:16:14.041Z,98120.13
2022-09-10T00:18:42.547Z,98103.19
2022-09-10T00:21:12.637Z,98087.22
2022-09-10T00:23:40.414Z,98080.00
2022-09-10T00:26:27.673Z,98072.38
2022-09-10T00:28:59.464Z,98073.78
2022-09-10T00:31:27.173Z,98059.06
2022-09-10T00:33:54.778Z,98058.72
2022-09-10T00:36:25.217Z,98059.00
2022-09-10T00:38:54.927Z,98055.28
2022-09-10T00:41:24.769Z,98037.13
2022-09-10T00:44:02.618Z,98042.28
2022-09-10T00:46:47.551Z,98056.06
2022-09-10T00:49:47.359Z,98057.31
2022-09-10T00:52:15.104Z,98050.75
2022-09-10T00:54:43.949Z,98039.84
2022-09-10T00:57:16.056Z,98040.50
2022-09-10T00:59:47.834Z,98040.50
2022-09-10T01:02:15.054Z,98047.59
2022-09-10T01:04:42.945Z,98042.69
2022-09-10T01:07:11.601Z,98043.91
2022-09-10T01:09:39.767Z,98041.34
2022-09-10T01:12:35.999Z,98057.38
2022-09-10T01:15:35.433Z,98070.16
2022-09-10T01:18:34.007Z,98090.25
2022-09-10T01:21:17.711Z,98090.38
2022-09-10T01:24:04.119Z,98074.97
2022-09-10T01:27:11.255Z,98073.75
2022-09-10T01:29:55.542Z,98066.63
2022-09-10T01:32:33.072Z,98064.50
2022-09-10T01:35:46.623Z,98063.47
2022-09-10T01:38:35.630Z,98055.53
2022-09-10T01:41:04.370Z,98050.66
2022-09-10T01:43:36.711Z,98042.94
2022-09-10T01:46:41.403Z,98051.16
2022-09-10T01:49:31.237Z,98060.16
2022-09-10T01:52:26.295Z,98049.84
2022-09-10T01:55:33.833Z,98059.97
2022-09-10T01:58:17.425Z,98085.41
2022-09-10T02:01:10.874Z,98088.44
2022-09-10T02:03:40.120Z,98073.88
2022-09-10T02:06:12.325Z,98063.06
2022-09-10T02:08:41.604Z,98065.72
2022-09-10T02:11:12.732Z,98060.09
2022-09-10T02:13:42.387Z,98076.13
2022-09-10T02:16:31.822Z,98063.63
2022-09-10T02:19:00.655Z,98064.69
2022-09-10T02:21:28.086Z,98071.66
2022-09-10T02:24:10.216Z,98052.66
2022-09-10T02:26:40.994Z,98045.88
2022-09-10T02:29:09.627Z,98044.66
2022-09-10T02:31:38.660Z,98037.75
2022-09-10T02:36:33.142Z,98038.00
2022-09-10T02:39:02.919Z,98041.34
2022-09-10T02:41:32.541Z,98045.88
2022-09-10T02:44:01.297Z,98060.28
2022-09-10T02:46:29.256Z,98059.31
2022-09-10T02:48:56.255Z,98061.66
2022-09-10T02:51:24.812Z,98059.47
2022-09-10T02:53:52.168Z,98076.28
2022-09-10T02:56:20.104Z,98062.69
2022-09-10T02:58:47.227Z,98051.47
2022-09-10T03:01:19.609Z,98038.75
2022-09-10T03:03:56.681Z,98031.59
2022-09-10T03:06:25.481Z,98038.38
2022-09-10T03:08:55.244Z,98047.38
2022-09-10T03:11:25.279Z,98048.84
2022-09-10T03:13:52.883Z,98038.13
2022-09-10T03:16:20.302Z,98038.69
2022-09-10T03:18:47.825Z,98032.22
2022-09-10T03:21:21.692Z,98035.59
2022-09-10T03:23:50.619Z,98029.28
2022-09-10T03:26:25.220Z,98017.75
2022-09-10T03:28:53.020Z,98024.97
2022-09-10T03:31:22.333Z,98024.66
2022-09-10T03:33:51.216Z,98020.25
2022-09-10T03:36:18.556Z,98025.38
2022-09-10T03:38:47.851Z,98020.44
2022-09-10T03:41:14.768Z,98023.06
2022-09-10T03:43:41.699Z,98023.94
2022-09-10T03:46:11.960Z,98022.16
2022-09-10T03:48:43.370Z,98036.28
2022-09-10T03:51:10.852Z,98037.59
2022-09-10T03:53:38.832Z,98028.84
2022-09-10T03:56:07.272Z,98030.47
2022-09-10T03:58:35.773Z,98028.38
2022-09-10T04:01:04.187Z,98017.84
2022-09-10T04:03:34.479Z,98020.16
2022-09-10T04:06:01.544Z,98025.75
2022-09-10T04:08:28.440Z,98021.78
2022-09-10T04:11:02.350Z,98022.69
2022-09-10T04:13:29.896Z,98030.50
2022-09-10T04:15:56.770Z,98032.34
2022-09-10T04:18:24.346Z,98020.81
2022-09-10T04:20:51.241Z,98017.75
2022-09-10T04:23:18.105Z,98018.75
2022-09-10T04:25:46.576Z,98029.47
2022-09-10T04:28:13.841Z,98026.22
2022-09-10T04:30:40.880Z,98010.03
2022-09-10T04:33:09.632Z,98015.28
2022-09-10T04:35:36.517Z,98020.22
2022-09-10T04:38:07.119Z,98022.16
2022-09-10T04:40:38.108Z,98029.72
2022-09-10T04:43:05.430Z,98032.09
2022-09-10T04:45:36.212Z,98024.56
2022-09-10T04:48:06.835Z,98030.03
2022-09-10T04:50:35.543Z,98030.72
2022-09-10T04:53:16.948Z,98029.75
2022-09-10T04:55:47.258Z,98034.88
2022-09-10T04:58:15.487Z,98043.53
2022-09-10T05:00:44.613Z,98037.19
2022-09-10T05:03:13.101Z,98045.75
2022-09-10T05:05:42.771Z,98057.97
2022-09-10T05:08:09.684Z,98057.53
2022-09-10T05:10:36.622Z,98049.69
2022-09-10T05:13:05.796Z,98057.69
2022-09-10T05:15:34.432Z,98054.97
2022-09-10T05:18:04.306Z,98057.25
2022-09-10T05:20:35.678Z,98052.16
2022-09-10T05:23:02.579Z,98060.72
2022-09-10T05:25:29.516Z,98065.00
2022-09-10T05:27:58.346Z,98058.44
2022-09-10T05:30:26.150Z,98061.47
2022-09-10T05:32:53.536Z,98063.69
2022-09-10T05:35:20.467Z,98066.28
2022-09-10T05:37:48.553Z,98062.31
2022-09-10T05:40:15.942Z,98067.63
2022-09-10T05:42:44.207Z,98067.91
2022-09-10T05:45:11.315Z,98092.75
2022-09-10T05:47:38.527Z,98076.97
2022-09-10T05:50:07.306Z,98068.81
2022-09-10T05:52:34.862Z,98058.59
2022-09-10T05:55:06.012Z,98067.44
2022-09-10T05:57:33.492Z,98054.22
2022-09-10T06:00:01.777Z,98055.53
2022-09-10T06:02:30.518Z,98053.88
2022-09-10T06:04:58.739Z,98057.56
2022-09-10T06:07:28.179Z,98062.72
2022-09-10T06:09:55.853Z,98060.03
2022-09-10T06:12:35.589Z,98062.13
2022-09-10T06:15:03.649Z,98062.59
2022-09-10T06:17:30.583Z,98067.94
2022-09-10T06:19:58.005Z,98072.81
2022-09-10T06:22:25.036Z,98072.84
2022-09-10T06:24:53.737Z,98079.75
2022-09-10T06:27:23.038Z,98072.63
2022-09-10T06:29:52.055Z,98080.31
2022-09-10T06:32:19.389Z,98083.47
2022-09-10T06:34:47.284Z,98087.00
2022-09-10T06:37:14.507Z,98091.31
2022-09-10T06:39:41.968Z,98084.31
2022-09-10T06:42:08.914Z,98072.78
2022-09-10T06:45:00.116Z,98073.44
2022-09-10T06:50:36.898Z,98093.00
2022-09-10T06:53:04.154Z,98093.03
2022-09-10T06:55:31.345Z,98095.88
2022-09-10T06:58:00.104Z,98098.25
2022-09-10T07:00:32.159Z,98099.66
2022-09-10T07:03:01.063Z,98095.63
2022-09-10T07:05:29.351Z,98091.22
2022-09-10T07:07:56.294Z,98103.31
2022-09-10T07:10:23.659Z,98101.34
2022-09-10T07:12:51.631Z,98104.19
2022-09-10T07:15:20.975Z,98114.88
2022-09-10T07:17:47.993Z,98095.13
2022-09-10T07:20:15.801Z,98106.09
2022-09-10T07:22:47.097Z,98119.59
2022-09-10T07:25:15.291Z,98129.34
2022-09-10T07:28:04.402Z,98116.91
2022-09-10T07:30:35.876Z,98121.97
2022-09-10T07:33:02.830Z,98118.06
2022-09-10T07:35:31.643Z,98125.22
2022-09-10T07:38:00.188Z,98135.53
2022-09-10T07:40:28.245Z,98134.13
2022-09-10T07:42:56.267Z,98133.16
2022-09-10T07:45:23.744Z,98145.00
2022-09-10T07:47:51.323Z,98148.00
2022-09-10T07:50:32.724Z,98158.59
2022-09-10T07:53:01.335Z,98156.75
2022-09-10T07:55:29.058Z,98163.84
2022-09-10T07:57:59.898Z,98149.22
2022-09-10T08:00:28.135Z,98153.72
2022-09-10T08:02:59.002Z,98162.41
2022-09-10T08:05:28.751Z,98159.66
2022-09-10T08:07:55.864Z,98161.00
2022-09-10T08:10:25.447Z,98151.47
2022-09-10T08:12:52.633Z,98155.78
2022-09-10T08:15:20.355Z,98158.34
2022-09-10T08:17:47.850Z,98170.50
2022-09-10T08:20:15.907Z,98167.25
2022-09-10T08:22:44.978Z,98168.72
2022-09-10T08:25:12.274Z,98163.56
2022-09-10T08:27:42.027Z,98174.84
2022-09-10T08:30:16.075Z,98165.94
2022-09-10T08:32:43.200Z,98166.44
2022-09-10T08:35:11.915Z,98168.69
2022-09-10T08:37:38.855Z,98171.59
2022-09-10T08:40:08.107Z,98181.84
2022-09-10T08:42:48.214Z,98173.69
2022-09-10T08:45:23.490Z,98168.69
2022-09-10T08:48:08.296Z,98185.09
2022-09-10T08:51:13.322Z,98186.91
2022-09-10T08:53:54.131Z,98175.47
2022-09-10T08:56:23.650Z,98184.75
2022-09-10T08:59:14.799Z,98178.47
2022-09-10T09:01:50.788Z,98182.75
2022-09-10T09:04:47.194Z,98173.09
2022-09-10T09:07:19.724Z,98191.34
2022-09-10T09:09:51.850Z,98174.84
2022-09-10T09:12:37.939Z,98159.13
2022-09-10T09:15:20.384Z,98177.06
2022-09-10T09:18:15.453Z,98169.63
2022-09-10T09:20:48.664Z,98166.50
2022-09-10T09:24:11.771Z,98159.88
2022-09-10T09:26:39.294Z,98165.59
2022-09-10T09:29:11.461Z,98179.19
2022-09-10T09:31:44.810Z,98167.38
2022-09-10T09:34:21.373Z,98182.19
2022-09-10T09:36:53.247Z,98170.00
2022-09-10T09:39:38.416Z,98164.34
2022-09-10T09:42:23.666Z,98164.59
2022-09-10T09:45:06.768Z,98149.59
2022-09-10T09:47:33.860Z,98145.47
2022-09-10T09:50:00.884Z,98165.94
2022-09-10T09:52:31.761Z,98153.50
2022-09-10T09:55:24.793Z,98158.31
2022-09-10T09:58:20.923Z,98146.50
2022-09-10T10:01:21.353Z,98146.28
2022-09-10T10:04:01.710Z,98145.13
2022-09-10T10:06:33.326Z,98156.25
2022-09-10T10:09:07.225Z,98161.00
2022-09-10T10:11:47.115Z,98155.13
2022-09-10T10:14:30.863Z,98156.56
2022-09-10T10:17:01.015Z,98158.09
2022-09-10T10:19:40.097Z,98155.59
2022-09-10T10:22:18.756Z,98156.94
2022-09-10T10:24:48.970Z,98167.16
2022-09-10T10:27:54.320Z,98163.69
2022-09-10T10:30:23.955Z,98152.00
2022-09-10T10:33:00.089Z,98147.72
2022-09-10T10:36:13.998Z,98159.25
2022-09-10T10:38:47.764Z,98160.81
2022-09-10T10:41:58.829Z,98162.63
2022-09-10T10:44:44.695Z,98175.91
2022-09-10T10:47:43.326Z,98178.13
2022-09-10T10:51:04.640Z,98197.50
2022-09-10T10:53:57.987Z,98161.88
2022-09-10T10:56:40.884Z,98168.28
2022-09-10T10:59:43.026Z,98165.56
2022-09-10T11:02:24.605Z,98159.69
2022-09-10T11:04:54.681Z,98161.34
2022-09-10T11:07:30.362Z,98158.03
2022-09-10T11:10:39.461Z,98161.56
2022-09-10T11:13:19.732Z,98154.31
2022-09-10T11:16:05.416Z,98170.91
2022-09-10T11:18:43.906Z,98151.97
2022-09-10T11:21:31.315Z,98140.97
2022-09-10T11:24:19.552Z,98149.97
2022-09-10T11:27:15.598Z,98142.13
2022-09-10T11:30:06.544Z,98139.19
2022-09-10T11:32:42.762Z,98138.88
2022-09-10T11:35:39.778Z,98140.59
2022-09-10T11:38:24.683Z,98124.47
2022-09-10T11:41:22.282Z,98125.94
2022-09-10T11:44:21.730Z,98125.25
2022-09-10T11:47:07.863Z,98125.78
2022-09-10T11:50:07.123Z,98127.94
2022-09-10T11:52:35.187Z,98115.72
2022-09-10T11:55:04.256Z,98106.53
2022-09-10T11:58:04.228Z,98119.31
2022-09-10T12:00:40.970Z,98119.81
2022-09-10T12:03:56.064Z,98101.97
2022-09-10T12:07:03.401Z,98098.28
2022-09-10T12:09:57.120Z,98105.66
2022-09-10T12:12:45.739Z,98106.59
2022-09-10T12:15:19.953Z,98111.06
2022-09-10T12:17:59.873Z,98100.38
2022-09-10T12:20:48.999Z,98107.25
2022-09-10T12:23:43.522Z,98109.94
2022-09-10T12:26:16.295Z,98112.84
2022-09-10T12:28:43.054Z,98106.78
2022-09-10T12:31:16.435Z,98104.00
2022-09-10T12:33:45.832Z,98100.50
2022-09-10T12:36:24.168Z,98100.97
2022-09-10T12:39:16.287Z,98114.63
2022-09-10T12:41:43.059Z,98092.13
2022-09-10T12:44:36.337Z,98098.38
2022-09-10T12:47:18.191Z,98102.91
2022-09-10T12:49:59.442Z,98096.06
2022-09-10T12:52:44.296Z,98087.03
2022-09-10T12:55:21.726Z,98092.13
2022-09-10T12:58:07.125Z,98094.38
2022-09-10T13:00:55.848Z,98098.25
2022-09-10T13:03:26.351Z,98091.13
2022-09-10T13:05:57.078Z,98113.16
2022-09-10T13:08:37.435Z,98084.81
2022-09-10T13:11:21.390Z,98083.75
2022-09-10T13:14:05.270Z,98080.44
2022-09-10T13:16:32.508Z,98080.91
2022-09-10T13:19:14.485Z,98075.44
2022-09-10T13:21:41.232Z,98079.69
2022-09-10T13:24:37.109Z,98080.38
2022-09-10T13:27:18.810Z,98076.28
2022-09-10T13:29:53.493Z,98079.75
2022-09-10T13:32:28.854Z,98081.47
2022-09-10T13:35:06.162Z,98078.88
2022-09-10T13:38:28.445Z,98067.94
2022-09-10T13:41:23.105Z,98060.78
2022-09-10T13:44:15.909Z,98068.56
2022-09-10T13:46:47.298Z,98050.88
2022-09-10T13:49:26.312Z,98058.34
2022-09-10T13:51:56.990Z,98057.56
2022-09-10T13:54:34.426Z,98061.06
2022-09-10T13:57:15.764Z,98059.47
2022-09-10T13:59:44.359Z,98051.72
2022-09-10T14:02:11.400Z,98064.00
2022-09-10T14:04:44.758Z,98056.31
2022-09-10T14:07:19.041Z,98055.94
2022-09-10T14:10:00.782Z,98061.53
2022-09-10T14:12:32.725Z,98053.72
2022-09-10T14:15:06.369Z,98066.72
2022-09-10T14:17:45.112Z,98065.13
2022-09-10T14:20:26.864Z,98066.44
2022-09-10T14:23:05.852Z,98063.66
2022-09-10T14:25:35.718Z,98071.28
2022-09-10T14:28:32.168Z,98077.16
2022-09-10T14:31:26.825Z,98077.19
2022-09-10T14:33:55.854Z,98081.88
2022-09-10T14:36:35.607Z,98081.88
2022-09-10T14:39:19.856Z,98081.75
2022-09-10T14:41:48.106Z,98087.59
2022-09-10T14:44:24.097Z,98086.84
2022-09-10T14:47:09.282Z,98078.09
2022-09-10T14:49:38.832Z,98081.47
2022-09-10T14:52:07.806Z,98084.97
2022-09-10T14:54:35.418Z,98083.81
2022-09-10T14:57:06.519Z,98085.28
2022-09-10T14:59:38.453Z,98089.91
2022-09-10T15:02:21.797Z,98091.75
2022-09-10T15:04:49.105Z,98097.16
2022-09-10T15:07:16.216Z,98117.91
2022-09-10T15:09:43.136Z,98125.19
2022-09-10T15:12:19.983Z,98101.41
2022-09-10T15:14:46.866Z,98096.34
2022-09-10T15:17:15.129Z,98093.16
2022-09-10T15:19:42.120Z,98079.16
2022-09-10T15:22:27.056Z,98092.63
2022-09-10T15:25:11.425Z,98087.28
2022-09-10T15:27:38.713Z,98073.16
2022-09-10T15:30:06.824Z,98094.22
2022-09-10T15:32:33.717Z,98089.31
2022-09-10T15:35:01.157Z,98088.84
2022-09-10T15:37:28.045Z,98092.81
2022-09-10T15:39:56.512Z,98113.13
2022-09-10T15:42:23.467Z,98109.63
2022-09-10T15:44:50.386Z,98125.22
2022-09-10T15:47:17.269Z,98111.41
2022-09-10T15:49:44.744Z,98106.16
2022-09-10T15:52:11.632Z,98106.28
2022-09-10T15:54:38.841Z,98122.38
2022-09-10T15:57:06.719Z,98120.25
2022-09-10T15:59:33.681Z,98121.72
2022-09-10T16:02:00.623Z,98137.03
2022-09-10T16:04:30.697Z,98137.50
2022-09-10T16:07:00.756Z,98141.28
2022-09-10T16:09:27.703Z,98138.53
2022-09-10T16:11:54.660Z,98122.75
2022-09-10T16:14:21.654Z,98137.50
2022-09-10T16:16:49.253Z,98138.84
2022-09-10T16:19:16.188Z,98132.84
2022-09-10T16:21:45.725Z,98131.09
2022-09-10T16:24:12.879Z,98124.59
2022-09-10T16:26:42.057Z,98127.25
2022-09-10T16:29:28.521Z,98127.16
2022-09-10T16:31:56.492Z,98129.56
2022-09-10T16:34:23.519Z,98131.19
2022-09-10T16:36:51.386Z,98147.66
2022-09-10T16:39:19.949Z,98139.31
2022-09-10T16:41:49.113Z,98135.00
2022-09-10T16:44:18.158Z,98136.94
2022-09-10T16:46:46.962Z,98127.81
2022-09-10T16:49:18.097Z,98132.00
2022-09-10T16:51:47.208Z,98147.00
2022-09-10T16:54:15.857Z,98164.50
2022-09-10T16:56:45.516Z,98155.88
2022-09-10T16:59:16.194Z,98146.44
2022-09-10T17:01:44.815Z,98149.19
2022-09-10T17:04:19.780Z,98144.19
2022-09-10T17:06:48.670Z,98144.53
2022-09-10T17:09:15.974Z,98145.09
2022-09-10T17:11:43.149Z,98150.06
2022-09-10T17:14:11.472Z,98142.78
2022-09-10T17:16:40.807Z,98149.50
2022-09-10T17:19:10.942Z,98152.88
2022-09-10T17:21:42.880Z,98155.72
2022-09-10T17:24:12.448Z,98143.81
2022-09-10T17:26:41.261Z,98149.53
2022-09-10T17:29:19.181Z,98166.00
2022-09-10T17:31:46.999Z,98163.72
2022-09-10T17:34:15.942Z,98154.13
2022-09-10T17:36:45.911Z,98168.78
2022-09-10T17:39:14.090Z,98164.97
2022-09-10T17:41:41.936Z,98168.38
2022-09-10T17:44:11.241Z,98176.28
2022-09-10T17:46:38.632Z,98159.59
2022-09-10T17:49:06.437Z,98167.41
2022-09-10T17:51:35.178Z,98160.50
2022-09-10T17:54:05.223Z,98175.63
2022-09-10T17:56:32.262Z,98176.13
2022-09-10T17:59:04.171Z,98171.81
2022-09-10T18:01:36.188Z,98168.56
2022-09-10T18:04:04.205Z,98171.25
2022-09-10T18:06:32.231Z,98176.56
2022-09-10T18:09:00.843Z,98187.34
2022-09-10T18:11:31.538Z,98194.38
2022-09-10T18:13:59.473Z,98200.28
2022-09-10T18:16:30.083Z,98192.38
2022-09-10T18:19:13.009Z,98193.28
2022-09-10T18:21:42.336Z,98189.66
2022-09-10T18:24:19.048Z,98197.72
2022-09-10T18:26:48.578Z,98192.56
2022-09-10T18:29:24.883Z,98200.75
2022-09-10T18:31:58.187Z,98198.59
2022-09-10T18:34:28.500Z,98207.41
2022-09-10T18:36:59.157Z,98205.66
2022-09-10T18:39:28.468Z,98224.31
2022-09-10T18:41:57.212Z,98198.56
2022-09-10T18:44:29.020Z,98209.63
2022-09-10T18:46:56.181Z,98209.75
2022-09-10T18:49:25.063Z,98201.00
2022-09-10T18:51:55.136Z,98215.06
2022-09-10T18:54:24.048Z,98204.91
2022-09-10T18:56:51.306Z,98208.81
2022-09-10T18:59:23.077Z,98210.22
2022-09-10T19:01:54.331Z,98218.81
2022-09-10T19:04:28.004Z,98211.84
2022-09-10T19:06:56.353Z,98211.53
2022-09-10T19:09:29.634Z,98199.53
2022-09-10T19:11:58.724Z,98205.47
2022-09-10T19:14:31.197Z,98201.63
2022-09-10T19:17:00.356Z,98212.19
2022-09-10T19:19:31.183Z,98194.56
2022-09-10T19:22:03.283Z,98200.84
2022-09-10T19:24:54.138Z,98207.22
2022-09-10T19:27:17.899Z,98214.09
2022-09-10T19:29:47.190Z,98217.72
2022-09-10T19:32:15.087Z,98212.75
2022-09-10T19:34:42.708Z,98224.59
2022-09-10T19:37:09.738Z,98226.41
2022-09-10T19:39:36.700Z,98224.31
2022-09-10T19:42:04.137Z,98230.59
2022-09-10T19:44:30.993Z,98225.63
2022-09-10T19:46:58.650Z,98223.03
2022-09-10T19:49:25.547Z,98230.28
2022-09-10T19:51:52.461Z,98235.03
2022-09-10T19:54:19.398Z,98226.47
2022-09-10T19:56:46.436Z,98223.63
2022-09-10T19:59:14.247Z,98228.19
2022-09-10T20:01:44.041Z,98235.28
2022-09-10T20:04:12.613Z,98230.16
2022-09-10T20:06:40.056Z,98230.59
2022-09-10T20:09:09.871Z,98236.69
2022-09-10T20:11:36.875Z,98236.66
2022-09-10T20:14:13.086Z,98234.06
2022-09-10T20:16:45.200Z,98229.00
2022-09-10T20:19:17.919Z,98230.22
2022-09-10T20:21:46.407Z,98225.09
2022-09-10T20:24:13.619Z,98238.09
2022-09-10T20:26:41.605Z,98216.22
2022-09-10T20:29:12.554Z,98222.22
2022-09-10T20:31:41.577Z,98215.25
2022-09-10T20:34:13.687Z,98216.50
2022-09-10T20:36:42.231Z,98224.44
2022-09-10T20:39:12.613Z,98209.94
2022-09-10T20:41:40.122Z,98228.19
2022-09-10T20:44:07.483Z,98213.13
2022-09-10T20:46:34.692Z,98222.94
2022-09-10T20:49:04.816Z,98224.78
2022-09-10T20:51:38.714Z,98217.66
2022-09-10T20:54:10.271Z,98222.81
2022-09-10T20:56:37.226Z,98221.19
2022-09-10T20:59:04.145Z,98228.53
2022-09-10T21:01:31.286Z,98228.59
2022-09-10T21:04:00.343Z,98224.59
2022-09-10T21:06:31.124Z,98228.88
2022-09-10T21:09:00.199Z,98223.16
2022-09-10T21:11:32.059Z,98226.78
2022-09-10T21:14:01.990Z,98233.63
2022-09-10T21:16:31.752Z,98221.22
2022-09-10T21:19:12.110Z,98227.13
2022-09-10T21:21:40.451Z,98222.75
2022-09-10T21:24:13.958Z,98223.94
2022-09-10T21:26:43.193Z,98217.09
2022-09-10T21:29:16.401Z,98222.41
2022-09-10T21:31:45.161Z,98223.06
2022-09-10T21:34:12.852Z,98223.13
2022-09-10T21:36:43.819Z,98224.91
2022-09-10T21:39:17.165Z,98216.31
2022-09-10T21:41:47.738Z,98223.84
2022-09-10T21:44:23.075Z,98237.91
2022-09-10T21:46:50.165Z,98230.09
2022-09-10T21:49:18.330Z,98230.84
2022-09-10T21:51:45.236Z,98227.66
2022-09-10T21:54:22.016Z,98230.94
2022-09-10T21:56:50.626Z,98232.38
2022-09-10T21:59:17.869Z,98236.56
2022-09-10T22:01:46.478Z,98234.47
2022-09-10T22:04:18.833Z,98231.50
2022-09-10T22:06:48.646Z,98234.31
2022-09-10T22:09:16.536Z,98240.19
2022-09-10T22:11:47.094Z,98235.09
2022-09-10T22:14:22.857Z,98234.56
2022-09-10T22:16:51.097Z,98253.56
2022-09-10T22:19:22.394Z,98250.88
2022-09-10T22:21:50.070Z,98259.06
2022-09-10T22:24:20.078Z,98255.66
2022-09-10T22:26:47.744Z,98249.66
2022-09-10T22:29:19.504Z,98249.03
2022-09-10T22:31:47.190Z,98254.56
2022-09-10T22:34:17.263Z,98246.59
2022-09-10T22:36:46.004Z,98246.47
2022-09-10T22:39:21.337Z,98241.72
2022-09-10T22:41:50.409Z,98245.16
2022-09-10T22:44:17.993Z,98243.34
2022-09-10T22:46:45.147Z,98245.09
2022-09-10T22:49:12.490Z,98255.06
2022-09-10T22:51:43.991Z,98263.59
2022-09-10T22:54:11.449Z,98282.13
2022-09-10T22:56:39.482Z,98287.25
2022-09-10T22:59:07.357Z,98305.75
2022-09-10T23:01:37.409Z,98288.25
2022-09-10T23:04:06.877Z,98291.41
2022-09-10T23:06:37.058Z,98284.09
2022-09-10T23:09:12.952Z,98292.91
2022-09-10T23:11:41.349Z,98283.22
2022-09-10T23:14:13.233Z,98281.69
2022-09-10T23:16:42.217Z,98285.59
2022-09-10T23:19:15.649Z,98282.53
2022-09-10T23:21:49.163Z,98283.16
2022-09-10T23:24:19.524Z,98274.81
2022-09-10T23:26:46.591Z,98267.88
2022-09-10T23:29:13.706Z,98275.09
2022-09-10T23:31:41.058Z,98269.47
2022-09-10T23:34:14.397Z,98275.06
2022-09-10T23:36:44.249Z,98272.09
2022-09-10T23:39:20.762Z,98266.50
2022-09-10T23:41:49.710Z,98277.94
2022-09-10T23:44:17.470Z,98269.25
2022-09-10T23:46:44.677Z,98258.81
2022-09-10T23:49:12.567Z,98267.97
2022-09-10T23:51:39.459Z,98264.25
2022-09-10T23:54:06.598Z,98260.56
2022-09-10T23:56:33.497Z,98255.31
2022-09-10T23:59:00.608Z,98249.06
